sensor_id;sensor_type;location;lat;lon;timestamp;temperature;humidity
55830;DHT22;41759;53.330;6.002;2024-03-07T00:00:06;4.00;99.90
55830;DHT22;41759;53.330;6.002;2024-03-07T00:02:42;4.00;99.90
55830;DHT22;41759;53.330;6.002;2024-03-07T00:05:08;5.10;99.90
55830;DHT22;41759;53.330;6.002;2024-03-07T00:07:34;3.90;99.90
55830;DHT22;41759;53.330;6.002;2024-03-07T00:10:03;3.90;99.90
55830;DHT22;41759;53.330;6.002;2024-03-07T00:12:29;4.00;99.90
55830;DHT22;41759;53.330;6.002;2024-03-07T00:14:55;3.90;99.90
55830;DHT22;41759;53.330;6.002;2024-03-07T00:17:21;3.90;99.90
55830;DHT22;41759;53.330;6.002;2024-03-07T00:19:48;4.00;99.90
55830;DHT22;41759;53.330;6.002;2024-03-07T00:22:14;3.90;99.90
55830;DHT22;41759;53.330;6.002;2024-03-07T00:24:40;3.90;99.90
55830;DHT22;41759;53.330;6.002;2024-03-07T00:27:06;3.90;99.90
55830;DHT22;41759;53.330;6.002;2024-03-07T00:29:32;3.90;99.90
55830;DHT22;41759;53.330;6.002;2024-03-07T00:32:01;5.00;99.90
55830;DHT22;41759;53.330;6.002;2024-03-07T00:34:27;3.90;99.90
55830;DHT22;41759;53.330;6.002;2024-03-07T00:36:53;4.50;99.90
55830;DHT22;41759;53.330;6.002;2024-03-07T00:39:18;3.80;99.90
55830;DHT22;41759;53.330;6.002;2024-03-07T00:41:45;3.90;99.90
55830;DHT22;41759;53.330;6.002;2024-03-07T00:44:11;3.80;99.90
55830;DHT22;41759;53.330;6.002;2024-03-07T00:46:37;3.80;99.90
55830;DHT22;41759;53.330;6.002;2024-03-07T00:49:04;3.80;99.90
55830;DHT22;41759;53.330;6.002;2024-03-07T00:51:30;3.80;99.90
55830;DHT22;41759;53.330;6.002;2024-03-07T00:53:57;3.70;99.90
55830;DHT22;41759;53.330;6.002;2024-03-07T00:56:23;4.60;99.90
55830;DHT22;41759;53.330;6.002;2024-03-07T00:58:49;3.80;99.90
55830;DHT22;41759;53.330;6.002;2024-03-07T01:01:16;3.70;99.90
55830;DHT22;41759;53.330;6.002;2024-03-07T01:03:43;3.70;99.90
55830;DHT22;41759;53.330;6.002;2024-03-07T01:06:08;3.70;99.90
55830;DHT22;41759;53.330;6.002;2024-03-07T01:08:38;3.60;99.90
55830;DHT22;41759;53.330;6.002;2024-03-07T01:11:04;3.70;99.90
55830;DHT22;41759;53.330;6.002;2024-03-07T01:13:36;3.80;99.90
55830;DHT22;41759;53.330;6.002;2024-03-07T01:16:02;3.60;99.90
55830;DHT22;41759;53.330;6.002;2024-03-07T01:18:28;3.60;99.90
55830;DHT22;41759;53.330;6.002;2024-03-07T01:20:53;3.60;99.90
55830;DHT22;41759;53.330;6.002;2024-03-07T01:23:20;5.10;99.90
55830;DHT22;41759;53.330;6.002;2024-03-07T01:25:46;3.70;99.90
55830;DHT22;41759;53.330;6.002;2024-03-07T01:28:12;3.80;99.90
55830;DHT22;41759;53.330;6.002;2024-03-07T01:30:39;2.40;99.90
55830;DHT22;41759;53.330;6.002;2024-03-07T01:33:05;3.60;99.90
55830;DHT22;41759;53.330;6.002;2024-03-07T01:35:31;3.60;99.90
55830;DHT22;41759;53.330;6.002;2024-03-07T01:37:56;3.50;99.90
55830;DHT22;41759;53.330;6.002;2024-03-07T01:40:22;3.50;99.90
55830;DHT22;41759;53.330;6.002;2024-03-07T01:42:50;3.50;99.90
55830;DHT22;41759;53.330;6.002;2024-03-07T01:45:17;3.50;99.90
55830;DHT22;41759;53.330;6.002;2024-03-07T01:47:44;3.40;99.90
55830;DHT22;41759;53.330;6.002;2024-03-07T01:50:10;3.40;99.90
55830;DHT22;41759;53.330;6.002;2024-03-07T01:52:38;3.40;99.90
55830;DHT22;41759;53.330;6.002;2024-03-07T01:55:05;3.40;99.90
55830;DHT22;41759;53.330;6.002;2024-03-07T01:57:31;3.30;99.90
55830;DHT22;41759;53.330;6.002;2024-03-07T01:59:57;3.40;99.90
55830;DHT22;41759;53.330;6.002;2024-03-07T02:02:23;3.30;99.90
55830;DHT22;41759;53.330;6.002;2024-03-07T02:04:48;3.20;99.90
55830;DHT22;41759;53.330;6.002;2024-03-07T02:07:14;3.40;99.90
55830;DHT22;41759;53.330;6.002;2024-03-07T02:09:41;3.30;99.90
55830;DHT22;41759;53.330;6.002;2024-03-07T02:12:07;3.30;99.90
55830;DHT22;41759;53.330;6.002;2024-03-07T02:14:34;3.20;99.90
55830;DHT22;41759;53.330;6.002;2024-03-07T02:17:00;3.20;99.90
55830;DHT22;41759;53.330;6.002;2024-03-07T02:19:26;3.20;99.90
55830;DHT22;41759;53.330;6.002;2024-03-07T02:21:51;3.20;99.90
55830;DHT22;41759;53.330;6.002;2024-03-07T02:24:17;2.90;99.90
55830;DHT22;41759;53.330;6.002;2024-03-07T02:26:43;3.10;99.90
55830;DHT22;41759;53.330;6.002;2024-03-07T02:29:09;3.10;99.90
55830;DHT22;41759;53.330;6.002;2024-03-07T02:31:35;3.30;99.90
55830;DHT22;41759;53.330;6.002;2024-03-07T02:34:03;3.70;99.90
55830;DHT22;41759;53.330;6.002;2024-03-07T02:36:29;3.50;99.90
55830;DHT22;41759;53.330;6.002;2024-03-07T02:38:55;3.00;99.90
55830;DHT22;41759;53.330;6.002;2024-03-07T02:41:21;3.00;99.90
55830;DHT22;41759;53.330;6.002;2024-03-07T02:43:46;3.00;99.90
55830;DHT22;41759;53.330;6.002;2024-03-07T02:46:12;3.00;99.90
55830;DHT22;41759;53.330;6.002;2024-03-07T02:48:38;4.20;99.90
55830;DHT22;41759;53.330;6.002;2024-03-07T02:51:05;4.00;99.90
55830;DHT22;41759;53.330;6.002;2024-03-07T02:53:33;3.00;99.90
55830;DHT22;41759;53.330;6.002;2024-03-07T02:55:59;3.60;99.90
55830;DHT22;41759;53.330;6.002;2024-03-07T02:58:25;2.90;99.90
55830;DHT22;41759;53.330;6.002;2024-03-07T03:00:58;3.20;99.90
55830;DHT22;41759;53.330;6.002;2024-03-07T03:03:27;2.90;99.90
55830;DHT22;41759;53.330;6.002;2024-03-07T03:05:53;2.90;99.90
55830;DHT22;41759;53.330;6.002;2024-03-07T03:08:18;4.80;99.90
55830;DHT22;41759;53.330;6.002;2024-03-07T03:10:44;2.90;99.90
55830;DHT22;41759;53.330;6.002;2024-03-07T03:13:10;2.80;99.90
55830;DHT22;41759;53.330;6.002;2024-03-07T03:15:36;2.80;99.90
55830;DHT22;41759;53.330;6.002;2024-03-07T03:18:04;2.80;99.90
55830;DHT22;41759;53.330;6.002;2024-03-07T03:20:31;2.80;99.90
55830;DHT22;41759;53.330;6.002;2024-03-07T03:23:00;2.70;99.90
55830;DHT22;41759;53.330;6.002;2024-03-07T03:25:28;2.70;99.90
55830;DHT22;41759;53.330;6.002;2024-03-07T03:27:54;2.70;99.90
55830;DHT22;41759;53.330;6.002;2024-03-07T03:30:20;2.90;99.90
55830;DHT22;41759;53.330;6.002;2024-03-07T03:32:50;2.60;99.90
55830;DHT22;41759;53.330;6.002;2024-03-07T03:35:15;2.60;99.90
55830;DHT22;41759;53.330;6.002;2024-03-07T03:37:42;2.60;99.90
55830;DHT22;41759;53.330;6.002;2024-03-07T03:40:09;2.60;99.90
55830;DHT22;41759;53.330;6.002;2024-03-07T03:42:39;2.60;99.90
55830;DHT22;41759;53.330;6.002;2024-03-07T03:45:05;2.50;99.90
55830;DHT22;41759;53.330;6.002;2024-03-07T03:47:36;2.50;99.90
55830;DHT22;41759;53.330;6.002;2024-03-07T03:50:06;3.90;99.90
55830;DHT22;41759;53.330;6.002;2024-03-07T03:52:33;2.50;99.90
55830;DHT22;41759;53.330;6.002;2024-03-07T03:55:01;2.40;99.90
55830;DHT22;41759;53.330;6.002;2024-03-07T03:57:28;2.40;99.90
55830;DHT22;41759;53.330;6.002;2024-03-07T03:59:54;2.40;99.90
55830;DHT22;41759;53.330;6.002;2024-03-07T04:02:20;2.40;99.90
55830;DHT22;41759;53.330;6.002;2024-03-07T04:04:48;2.40;99.90
55830;DHT22;41759;53.330;6.002;2024-03-07T04:07:14;2.30;99.90
55830;DHT22;41759;53.330;6.002;2024-03-07T04:09:46;2.40;99.90
55830;DHT22;41759;53.330;6.002;2024-03-07T04:12:13;2.30;99.90
55830;DHT22;41759;53.330;6.002;2024-03-07T04:14:43;2.30;99.90
55830;DHT22;41759;53.330;6.002;2024-03-07T04:17:10;2.30;99.90
55830;DHT22;41759;53.330;6.002;2024-03-07T04:19:41;2.50;99.90
55830;DHT22;41759;53.330;6.002;2024-03-07T04:22:08;2.20;99.90
55830;DHT22;41759;53.330;6.002;2024-03-07T04:24:37;2.20;99.90
55830;DHT22;41759;53.330;6.002;2024-03-07T04:27:04;2.20;99.90
55830;DHT22;41759;53.330;6.002;2024-03-07T04:29:33;2.20;99.90
55830;DHT22;41759;53.330;6.002;2024-03-07T04:32:02;3.90;99.90
55830;DHT22;41759;53.330;6.002;2024-03-07T04:34:29;2.20;99.90
55830;DHT22;41759;53.330;6.002;2024-03-07T04:37:02;2.10;99.90
55830;DHT22;41759;53.330;6.002;2024-03-07T04:39:28;2.10;99.90
55830;DHT22;41759;53.330;6.002;2024-03-07T04:42:04;2.30;99.90
55830;DHT22;41759;53.330;6.002;2024-03-07T04:44:35;2.10;99.90
55830;DHT22;41759;53.330;6.002;2024-03-07T04:47:02;2.10;99.90
55830;DHT22;41759;53.330;6.002;2024-03-07T04:49:30;2.90;99.90
55830;DHT22;41759;53.330;6.002;2024-03-07T04:51:58;3.70;99.90
55830;DHT22;41759;53.330;6.002;2024-03-07T04:54:25;2.10;99.90
55830;DHT22;41759;53.330;6.002;2024-03-07T04:56:52;2.10;99.90
55830;DHT22;41759;53.330;6.002;2024-03-07T04:59:19;2.40;99.90
55830;DHT22;41759;53.330;6.002;2024-03-07T05:01:45;2.10;99.90
55830;DHT22;41759;53.330;6.002;2024-03-07T05:04:12;2.50;99.90
55830;DHT22;41759;53.330;6.002;2024-03-07T05:06:39;2.00;99.90
55830;DHT22;41759;53.330;6.002;2024-03-07T05:09:06;2.00;99.90
55830;DHT22;41759;53.330;6.002;2024-03-07T05:11:36;1.90;99.90
55830;DHT22;41759;53.330;6.002;2024-03-07T05:14:02;3.10;99.90
55830;DHT22;41759;53.330;6.002;2024-03-07T05:16:29;2.00;99.90
55830;DHT22;41759;53.330;6.002;2024-03-07T05:18:56;2.00;99.90
55830;DHT22;41759;53.330;6.002;2024-03-07T05:21:26;2.00;99.90
55830;DHT22;41759;53.330;6.002;2024-03-07T05:24:07;2.00;99.90
55830;DHT22;41759;53.330;6.002;2024-03-07T05:26:36;2.00;99.90
55830;DHT22;41759;53.330;6.002;2024-03-07T05:29:07;2.80;99.90
55830;DHT22;41759;53.330;6.002;2024-03-07T05:31:34;3.40;99.90
55830;DHT22;41759;53.330;6.002;2024-03-07T05:34:06;1.90;99.90
55830;DHT22;41759;53.330;6.002;2024-03-07T05:36:35;1.90;99.90
55830;DHT22;41759;53.330;6.002;2024-03-07T05:39:02;2.10;99.90
55830;DHT22;41759;53.330;6.002;2024-03-07T05:41:39;1.90;99.90
55830;DHT22;41759;53.330;6.002;2024-03-07T05:44:06;1.90;99.90
55830;DHT22;41759;53.330;6.002;2024-03-07T05:46:43;2.00;99.90
55830;DHT22;41759;53.330;6.002;2024-03-07T05:49:14;1.90;99.90
55830;DHT22;41759;53.330;6.002;2024-03-07T05:51:40;2.10;99.90
55830;DHT22;41759;53.330;6.002;2024-03-07T05:54:12;1.90;99.90
55830;DHT22;41759;53.330;6.002;2024-03-07T05:56:39;1.90;99.90
55830;DHT22;41759;53.330;6.002;2024-03-07T05:59:06;3.30;99.90
55830;DHT22;41759;53.330;6.002;2024-03-07T06:01:36;2.50;99.90
55830;DHT22;41759;53.330;6.002;2024-03-07T06:04:03;3.40;99.90
55830;DHT22;41759;53.330;6.002;2024-03-07T06:06:31;2.10;99.90
55830;DHT22;41759;53.330;6.002;2024-03-07T06:09:08;2.20;99.90
55830;DHT22;41759;53.330;6.002;2024-03-07T06:11:35;2.30;99.90
55830;DHT22;41759;53.330;6.002;2024-03-07T06:14:02;3.40;99.90
55830;DHT22;41759;53.330;6.002;2024-03-07T06:16:34;3.90;99.90
55830;DHT22;41759;53.330;6.002;2024-03-07T06:19:01;2.40;99.90
55830;DHT22;41759;53.330;6.002;2024-03-07T06:21:28;2.40;99.90
55830;DHT22;41759;53.330;6.002;2024-03-07T06:23:56;2.50;99.90
55830;DHT22;41759;53.330;6.002;2024-03-07T06:26:28;2.50;99.90
55830;DHT22;41759;53.330;6.002;2024-03-07T06:29:06;3.70;99.90
55830;DHT22;41759;53.330;6.002;2024-03-07T06:31:32;2.60;99.90
55830;DHT22;41759;53.330;6.002;2024-03-07T06:33:58;2.80;99.90
55830;DHT22;41759;53.330;6.002;2024-03-07T06:36:24;2.70;99.90
55830;DHT22;41759;53.330;6.002;2024-03-07T06:38:53;2.80;99.90
55830;DHT22;41759;53.330;6.002;2024-03-07T06:41:20;2.80;99.90
55830;DHT22;41759;53.330;6.002;2024-03-07T06:43:45;2.90;99.90
55830;DHT22;41759;53.330;6.002;2024-03-07T06:46:11;3.00;99.90
55830;DHT22;41759;53.330;6.002;2024-03-07T06:48:38;4.50;99.90
55830;DHT22;41759;53.330;6.002;2024-03-07T06:51:06;3.10;99.90
55830;DHT22;41759;53.330;6.002;2024-03-07T06:53:31;3.10;99.90
55830;DHT22;41759;53.330;6.002;2024-03-07T06:55:57;3.20;99.90
55830;DHT22;41759;53.330;6.002;2024-03-07T06:58:23;3.30;99.90
55830;DHT22;41759;53.330;6.002;2024-03-07T07:00:49;4.50;99.90
55830;DHT22;41759;53.330;6.002;2024-03-07T07:03:20;3.40;99.90
55830;DHT22;41759;53.330;6.002;2024-03-07T07:05:46;3.40;99.90
55830;DHT22;41759;53.330;6.002;2024-03-07T07:08:12;3.40;99.90
55830;DHT22;41759;53.330;6.002;2024-03-07T07:10:41;3.50;99.90
55830;DHT22;41759;53.330;6.002;2024-03-07T07:13:08;3.50;99.90
55830;DHT22;41759;53.330;6.002;2024-03-07T07:15:34;3.50;99.90
55830;DHT22;41759;53.330;6.002;2024-03-07T07:18:02;3.60;99.90
55830;DHT22;41759;53.330;6.002;2024-03-07T07:20:28;3.70;99.90
55830;DHT22;41759;53.330;6.002;2024-03-07T07:22:54;3.70;99.90
55830;DHT22;41759;53.330;6.002;2024-03-07T07:25:23;3.70;99.90
55830;DHT22;41759;53.330;6.002;2024-03-07T07:27:51;3.70;99.90
55830;DHT22;41759;53.330;6.002;2024-03-07T07:30:19;3.70;99.90
55830;DHT22;41759;53.330;6.002;2024-03-07T07:32:45;4.70;99.90
55830;DHT22;41759;53.330;6.002;2024-03-07T07:35:11;3.80;99.90
55830;DHT22;41759;53.330;6.002;2024-03-07T07:37:39;3.80;99.90
55830;DHT22;41759;53.330;6.002;2024-03-07T07:40:08;3.80;99.90
55830;DHT22;41759;53.330;6.002;2024-03-07T07:42:36;3.90;99.90
55830;DHT22;41759;53.330;6.002;2024-03-07T07:45:06;3.90;99.90
55830;DHT22;41759;53.330;6.002;2024-03-07T07:47:32;4.00;99.90
55830;DHT22;41759;53.330;6.002;2024-03-07T07:49:58;4.00;99.90
55830;DHT22;41759;53.330;6.002;2024-03-07T07:52:24;4.00;99.90
55830;DHT22;41759;53.330;6.002;2024-03-07T07:54:49;4.10;99.90
55830;DHT22;41759;53.330;6.002;2024-03-07T07:57:15;4.10;99.90
55830;DHT22;41759;53.330;6.002;2024-03-07T07:59:41;4.40;99.90
55830;DHT22;41759;53.330;6.002;2024-03-07T08:02:06;4.20;99.90
55830;DHT22;41759;53.330;6.002;2024-03-07T08:04:32;4.20;99.90
55830;DHT22;41759;53.330;6.002;2024-03-07T08:06:59;4.20;99.90
55830;DHT22;41759;53.330;6.002;2024-03-07T08:09:25;4.20;99.90
55830;DHT22;41759;53.330;6.002;2024-03-07T08:11:51;4.40;99.90
55830;DHT22;41759;53.330;6.002;2024-03-07T08:14:18;4.30;99.90
55830;DHT22;41759;53.330;6.002;2024-03-07T08:16:43;4.50;99.90
55830;DHT22;41759;53.330;6.002;2024-03-07T08:19:13;4.30;99.90
55830;DHT22;41759;53.330;6.002;2024-03-07T08:21:40;4.30;99.90
55830;DHT22;41759;53.330;6.002;2024-03-07T08:24:05;4.30;99.90
55830;DHT22;41759;53.330;6.002;2024-03-07T08:26:36;4.30;99.90
55830;DHT22;41759;53.330;6.002;2024-03-07T08:29:02;4.30;99.90
55830;DHT22;41759;53.330;6.002;2024-03-07T08:31:28;5.00;99.90
55830;DHT22;41759;53.330;6.002;2024-03-07T08:33:54;4.20;99.90
55830;DHT22;41759;53.330;6.002;2024-03-07T08:36:20;4.20;99.90
55830;DHT22;41759;53.330;6.002;2024-03-07T08:38:45;5.10;99.90
55830;DHT22;41759;53.330;6.002;2024-03-07T08:41:12;4.20;99.90
55830;DHT22;41759;53.330;6.002;2024-03-07T08:43:37;4.00;99.90
55830;DHT22;41759;53.330;6.002;2024-03-07T08:46:03;4.10;99.90
55830;DHT22;41759;53.330;6.002;2024-03-07T08:48:29;4.00;99.90
55830;DHT22;41759;53.330;6.002;2024-03-07T08:50:54;3.90;99.90
55830;DHT22;41759;53.330;6.002;2024-03-07T08:53:20;3.90;99.90
55830;DHT22;41759;53.330;6.002;2024-03-07T08:55:46;4.30;99.90
55830;DHT22;41759;53.330;6.002;2024-03-07T08:58:11;5.00;99.90
55830;DHT22;41759;53.330;6.002;2024-03-07T09:00:37;4.00;99.90
55830;DHT22;41759;53.330;6.002;2024-03-07T09:03:03;3.80;99.90
55830;DHT22;41759;53.330;6.002;2024-03-07T09:05:30;3.80;99.90
55830;DHT22;41759;53.330;6.002;2024-03-07T09:07:58;3.70;99.90
55830;DHT22;41759;53.330;6.002;2024-03-07T09:10:24;3.70;99.90
55830;DHT22;41759;53.330;6.002;2024-03-07T09:12:55;3.70;99.90
55830;DHT22;41759;53.330;6.002;2024-03-07T09:15:21;3.90;99.90
55830;DHT22;41759;53.330;6.002;2024-03-07T09:17:49;4.10;99.90
55830;DHT22;41759;53.330;6.002;2024-03-07T09:20:15;3.50;99.90
55830;DHT22;41759;53.330;6.002;2024-03-07T09:22:44;3.50;99.90
55830;DHT22;41759;53.330;6.002;2024-03-07T09:25:10;3.40;99.90
55830;DHT22;41759;53.330;6.002;2024-03-07T09:27:38;3.40;99.90
55830;DHT22;41759;53.330;6.002;2024-03-07T09:30:06;2.90;99.90
55830;DHT22;41759;53.330;6.002;2024-03-07T09:32:41;3.30;99.90
55830;DHT22;41759;53.330;6.002;2024-03-07T09:35:10;3.30;99.90
55830;DHT22;41759;53.330;6.002;2024-03-07T09:37:40;3.20;99.90
55830;DHT22;41759;53.330;6.002;2024-03-07T09:40:08;3.30;99.90
55830;DHT22;41759;53.330;6.002;2024-03-07T09:42:43;3.30;99.90
55830;DHT22;41759;53.330;6.002;2024-03-07T09:45:17;3.30;99.90
55830;DHT22;41759;53.330;6.002;2024-03-07T09:47:46;3.20;99.90
55830;DHT22;41759;53.330;6.002;2024-03-07T09:50:15;3.20;99.90
55830;DHT22;41759;53.330;6.002;2024-03-07T09:52:41;3.40;99.90
55830;DHT22;41759;53.330;6.002;2024-03-07T09:55:08;3.20;99.90
55830;DHT22;41759;53.330;6.002;2024-03-07T09:57:34;3.30;99.90
55830;DHT22;41759;53.330;6.002;2024-03-07T10:00:02;4.20;99.90
55830;DHT22;41759;53.330;6.002;2024-03-07T10:02:30;3.20;99.90
55830;DHT22;41759;53.330;6.002;2024-03-07T10:04:57;3.20;99.90
55830;DHT22;41759;53.330;6.002;2024-03-07T10:07:23;3.10;99.90
55830;DHT22;41759;53.330;6.002;2024-03-07T10:09:49;3.10;99.90
55830;DHT22;41759;53.330;6.002;2024-03-07T10:12:17;3.10;99.90
55830;DHT22;41759;53.330;6.002;2024-03-07T10:14:51;3.80;99.90
55830;DHT22;41759;53.330;6.002;2024-03-07T10:17:19;3.20;99.90
55830;DHT22;41759;53.330;6.002;2024-03-07T10:19:48;3.10;99.90
55830;DHT22;41759;53.330;6.002;2024-03-07T10:22:16;3.10;99.90
55830;DHT22;41759;53.330;6.002;2024-03-07T10:24:54;3.20;99.90
55830;DHT22;41759;53.330;6.002;2024-03-07T10:27:20;3.20;99.90
55830;DHT22;41759;53.330;6.002;2024-03-07T10:29:52;3.20;99.90
55830;DHT22;41759;53.330;6.002;2024-03-07T10:32:22;3.20;99.90
55830;DHT22;41759;53.330;6.002;2024-03-07T10:34:50;3.20;99.90
55830;DHT22;41759;53.330;6.002;2024-03-07T10:37:16;4.00;99.90
55830;DHT22;41759;53.330;6.002;2024-03-07T10:39:46;3.20;99.90
55830;DHT22;41759;53.330;6.002;2024-03-07T10:42:13;3.30;99.90
55830;DHT22;41759;53.330;6.002;2024-03-07T10:44:47;3.40;99.90
55830;DHT22;41759;53.330;6.002;2024-03-07T10:47:16;3.40;99.90
55830;DHT22;41759;53.330;6.002;2024-03-07T10:50:20;3.40;99.90
55830;DHT22;41759;53.330;6.002;2024-03-07T10:52:58;3.40;99.90
55830;DHT22;41759;53.330;6.002;2024-03-07T10:55:37;3.50;99.90
55830;DHT22;41759;53.330;6.002;2024-03-07T10:58:16;3.50;99.90
55830;DHT22;41759;53.330;6.002;2024-03-07T11:00:45;3.60;99.90
55830;DHT22;41759;53.330;6.002;2024-03-07T11:03:13;3.60;99.90
55830;DHT22;41759;53.330;6.002;2024-03-07T11:05:39;5.30;99.90
55830;DHT22;41759;53.330;6.002;2024-03-07T11:08:07;4.00;99.90
55830;DHT22;41759;53.330;6.002;2024-03-07T11:10:37;3.70;99.90
55830;DHT22;41759;53.330;6.002;2024-03-07T11:13:05;3.60;99.90
55830;DHT22;41759;53.330;6.002;2024-03-07T11:15:33;3.80;99.90
55830;DHT22;41759;53.330;6.002;2024-03-07T11:17:59;3.90;99.90
55830;DHT22;41759;53.330;6.002;2024-03-07T11:20:26;4.90;99.90
55830;DHT22;41759;53.330;6.002;2024-03-07T11:22:53;3.90;99.90
55830;DHT22;41759;53.330;6.002;2024-03-07T11:25:21;4.00;99.90
55830;DHT22;41759;53.330;6.002;2024-03-07T11:27:52;4.10;99.90
55830;DHT22;41759;53.330;6.002;2024-03-07T11:30:19;4.70;99.90
55830;DHT22;41759;53.330;6.002;2024-03-07T11:32:46;4.20;99.90
55830;DHT22;41759;53.330;6.002;2024-03-07T11:35:14;4.20;99.90
55830;DHT22;41759;53.330;6.002;2024-03-07T11:37:42;5.50;99.90
55830;DHT22;41759;53.330;6.002;2024-03-07T11:42:54;4.30;99.90
55830;DHT22;41759;53.330;6.002;2024-03-07T11:45:22;4.40;99.90
55830;DHT22;41759;53.330;6.002;2024-03-07T11:47:57;4.50;99.90
55830;DHT22;41759;53.330;6.002;2024-03-07T11:50:29;4.60;99.90
55830;DHT22;41759;53.330;6.002;2024-03-07T11:53:01;4.60;99.90
55830;DHT22;41759;53.330;6.002;2024-03-07T11:55:27;3.40;99.90
55830;DHT22;41759;53.330;6.002;2024-03-07T11:58:25;4.70;99.90
55830;DHT22;41759;53.330;6.002;2024-03-07T12:00:51;5.00;99.90
55830;DHT22;41759;53.330;6.002;2024-03-07T12:03:19;4.80;99.90
55830;DHT22;41759;53.330;6.002;2024-03-07T12:05:48;4.80;99.90
55830;DHT22;41759;53.330;6.002;2024-03-07T12:08:14;4.80;99.90
55830;DHT22;41759;53.330;6.002;2024-03-07T12:10:41;4.90;99.90
55830;DHT22;41759;53.330;6.002;2024-03-07T12:13:11;4.90;99.90
55830;DHT22;41759;53.330;6.002;2024-03-07T12:15:38;4.90;99.90
55830;DHT22;41759;53.330;6.002;2024-03-07T12:18:04;4.90;99.90
55830;DHT22;41759;53.330;6.002;2024-03-07T12:20:40;4.90;99.90
55830;DHT22;41759;53.330;6.002;2024-03-07T12:23:07;4.80;99.90
55830;DHT22;41759;53.330;6.002;2024-03-07T12:25:37;5.10;99.90
55830;DHT22;41759;53.330;6.002;2024-03-07T12:28:10;4.90;99.90
55830;DHT22;41759;53.330;6.002;2024-03-07T12:30:55;4.90;99.90
55830;DHT22;41759;53.330;6.002;2024-03-07T12:33:23;5.00;99.90
55830;DHT22;41759;53.330;6.002;2024-03-07T12:35:52;4.90;99.90
55830;DHT22;41759;53.330;6.002;2024-03-07T12:38:19;4.90;99.90
55830;DHT22;41759;53.330;6.002;2024-03-07T12:40:45;4.90;99.90
55830;DHT22;41759;53.330;6.002;2024-03-07T12:43:18;5.00;99.90
55830;DHT22;41759;53.330;6.002;2024-03-07T12:45:48;5.00;99.90
55830;DHT22;41759;53.330;6.002;2024-03-07T12:48:15;5.90;99.90
55830;DHT22;41759;53.330;6.002;2024-03-07T12:50:42;5.20;99.90
55830;DHT22;41759;53.330;6.002;2024-03-07T12:53:10;5.20;99.90
55830;DHT22;41759;53.330;6.002;2024-03-07T12:55:41;5.50;99.90
55830;DHT22;41759;53.330;6.002;2024-03-07T12:58:08;5.40;99.90
55830;DHT22;41759;53.330;6.002;2024-03-07T13:00:35;5.50;99.90
55830;DHT22;41759;53.330;6.002;2024-03-07T13:03:01;5.50;99.90
55830;DHT22;41759;53.330;6.002;2024-03-07T13:05:28;5.50;99.90
55830;DHT22;41759;53.330;6.002;2024-03-07T13:07:54;5.60;99.90
55830;DHT22;41759;53.330;6.002;2024-03-07T13:10:20;5.70;99.90
55830;DHT22;41759;53.330;6.002;2024-03-07T13:12:50;5.70;99.90
55830;DHT22;41759;53.330;6.002;2024-03-07T13:15:16;5.60;99.90
55830;DHT22;41759;53.330;6.002;2024-03-07T13:17:42;7.30;99.90
55830;DHT22;41759;53.330;6.002;2024-03-07T13:20:09;5.60;99.90
55830;DHT22;41759;53.330;6.002;2024-03-07T13:22:44;5.60;99.90
55830;DHT22;41759;53.330;6.002;2024-03-07T13:25:20;5.70;99.90
55830;DHT22;41759;53.330;6.002;2024-03-07T13:27:57;5.70;99.90
55830;DHT22;41759;53.330;6.002;2024-03-07T13:30:26;5.70;99.90
55830;DHT22;41759;53.330;6.002;2024-03-07T13:32:56;5.80;99.90
55830;DHT22;41759;53.330;6.002;2024-03-07T13:35:25;5.80;99.90
55830;DHT22;41759;53.330;6.002;2024-03-07T13:37:52;5.80;99.90
55830;DHT22;41759;53.330;6.002;2024-03-07T13:40:26;5.80;99.90
55830;DHT22;41759;53.330;6.002;2024-03-07T13:42:53;5.90;99.90
55830;DHT22;41759;53.330;6.002;2024-03-07T13:45:21;5.80;99.90
55830;DHT22;41759;53.330;6.002;2024-03-07T13:47:48;5.80;99.90
55830;DHT22;41759;53.330;6.002;2024-03-07T13:50:17;6.70;99.90
55830;DHT22;41759;53.330;6.002;2024-03-07T13:52:46;5.90;99.90
55830;DHT22;41759;53.330;6.002;2024-03-07T13:55:32;5.70;99.90
55830;DHT22;41759;53.330;6.002;2024-03-07T13:58:04;6.00;99.90
55830;DHT22;41759;53.330;6.002;2024-03-07T14:06:04;5.70;99.90
55830;DHT22;41759;53.330;6.002;2024-03-07T14:08:53;5.60;99.90
55830;DHT22;41759;53.330;6.002;2024-03-07T14:12:04;5.60;99.90
55830;DHT22;41759;53.330;6.002;2024-03-07T14:18:11;5.70;99.90
55830;DHT22;41759;53.330;6.002;2024-03-07T14:29:26;5.80;99.90
55830;DHT22;41759;53.330;6.002;2024-03-07T14:31:57;5.80;99.90
55830;DHT22;41759;53.330;6.002;2024-03-07T14:37:52;5.80;99.90
55830;DHT22;41759;53.330;6.002;2024-03-07T14:40:21;5.80;99.90
55830;DHT22;41759;53.330;6.002;2024-03-07T14:42:48;5.90;99.90
55830;DHT22;41759;53.330;6.002;2024-03-07T14:45:25;6.30;99.90
55830;DHT22;41759;53.330;6.002;2024-03-07T14:47:53;6.00;99.90
55830;DHT22;41759;53.330;6.002;2024-03-07T14:50:20;5.90;99.90
55830;DHT22;41759;53.330;6.002;2024-03-07T14:52:47;5.90;99.90
55830;DHT22;41759;53.330;6.002;2024-03-07T14:55:13;6.00;99.90
55830;DHT22;41759;53.330;6.002;2024-03-07T14:57:42;6.00;99.90
55830;DHT22;41759;53.330;6.002;2024-03-07T15:00:11;6.00;99.90
55830;DHT22;41759;53.330;6.002;2024-03-07T15:02:46;7.20;99.90
55830;DHT22;41759;53.330;6.002;2024-03-07T15:05:13;6.30;99.90
55830;DHT22;41759;53.330;6.002;2024-03-07T15:07:39;6.00;99.90
55830;DHT22;41759;53.330;6.002;2024-03-07T15:10:14;6.00;99.90
55830;DHT22;41759;53.330;6.002;2024-03-07T15:12:45;5.80;99.90
55830;DHT22;41759;53.330;6.002;2024-03-07T15:15:15;6.10;99.90
55830;DHT22;41759;53.330;6.002;2024-03-07T15:17:42;6.00;99.90
55830;DHT22;41759;53.330;6.002;2024-03-07T15:20:14;6.00;99.90
55830;DHT22;41759;53.330;6.002;2024-03-07T15:22:53;6.10;99.90
55830;DHT22;41759;53.330;6.002;2024-03-07T15:25:20;6.10;99.90
55830;DHT22;41759;53.330;6.002;2024-03-07T15:27:48;6.90;99.90
55830;DHT22;41759;53.330;6.002;2024-03-07T15:30:19;6.10;99.90
55830;DHT22;41759;53.330;6.002;2024-03-07T15:32:46;6.20;99.90
55830;DHT22;41759;53.330;6.002;2024-03-07T15:35:13;6.20;99.90
55830;DHT22;41759;53.330;6.002;2024-03-07T15:37:49;6.20;99.90
55830;DHT22;41759;53.330;6.002;2024-03-07T15:40:16;6.20;99.90
55830;DHT22;41759;53.330;6.002;2024-03-07T15:42:42;6.20;99.90
55830;DHT22;41759;53.330;6.002;2024-03-07T15:45:13;6.40;99.90
55830;DHT22;41759;53.330;6.002;2024-03-07T15:47:46;6.30;99.90
55830;DHT22;41759;53.330;6.002;2024-03-07T15:50:13;6.30;99.90
55830;DHT22;41759;53.330;6.002;2024-03-07T15:52:42;6.30;99.90
55830;DHT22;41759;53.330;6.002;2024-03-07T15:55:09;6.30;99.90
55830;DHT22;41759;53.330;6.002;2024-03-07T15:57:47;6.30;99.90
55830;DHT22;41759;53.330;6.002;2024-03-07T16:00:16;6.30;99.90
55830;DHT22;41759;53.330;6.002;2024-03-07T16:03:04;7.00;99.90
55830;DHT22;41759;53.330;6.002;2024-03-07T16:05:34;6.30;99.90
55830;DHT22;41759;53.330;6.002;2024-03-07T16:08:01;6.30;99.90
55830;DHT22;41759;53.330;6.002;2024-03-07T16:10:29;6.20;99.90
55830;DHT22;41759;53.330;6.002;2024-03-07T16:12:57;6.20;99.90
55830;DHT22;41759;53.330;6.002;2024-03-07T16:15:24;6.10;99.90